createdAt,value
2019-05-20T00:02:23.059Z,17.97
2019-05-20T00:04:41.054Z,16.80
2019-05-20T00:07:11.853Z,16.57
2019-05-20T00:09:42.690Z,16.47
2019-05-20T00:12:14.581Z,16.90
2019-05-20T00:14:46.553Z,16.33
2019-05-20T00:17:17.873Z,20.90
2019-05-20T00:19:50.748Z,20.00
2019-05-20T00:22:21.385Z,16.47
2019-05-20T00:24:52.102Z,19.60
2019-05-20T00:27:24.178Z,16.83
2019-05-20T00:29:54.968Z,18.27
2019-05-20T00:32:40.215Z,16.73
2019-05-20T00:34:59.193Z,21.97
2019-05-20T00:37:30.051Z,19.03
2019-05-20T00:40:01.065Z,20.03
2019-05-20T00:42:31.699Z,17.90
2019-05-20T00:45:02.471Z,18.00
2019-05-20T00:47:33.120Z,18.13
2019-05-20T00:50:03.667Z,21.80
2019-05-20T00:52:34.274Z,20.10
2019-05-20T00:55:04.834Z,19.47
2019-05-20T00:57:35.694Z,22.20
2019-05-20T01:00:07.296Z,18.73
2019-05-20T01:02:39.914Z,28.70
2019-05-20T01:05:11.163Z,24.87
2019-05-20T01:07:41.871Z,20.07
2019-05-20T01:10:12.676Z,19.07
2019-05-20T01:12:44.456Z,22.33
2019-05-20T01:15:16.038Z,21.10
2019-05-20T01:17:47.030Z,20.70
2019-05-20T01:20:17.923Z,24.00
2019-05-20T01:22:48.685Z,19.97
2019-05-20T01:25:19.369Z,21.77
2019-05-20T01:27:49.945Z,23.40
2019-05-20T01:30:20.823Z,22.23
2019-05-20T01:32:51.452Z,25.60
2019-05-20T01:35:22.481Z,27.90
2019-05-20T01:37:53.182Z,22.93
2019-05-20T01:40:24.073Z,28.97
2019-05-20T01:42:54.702Z,26.43
2019-05-20T01:45:25.479Z,25.03
2019-05-20T01:47:56.414Z,26.33
2019-05-20T01:50:27.050Z,29.50
2019-05-20T01:52:57.738Z,25.87
2019-05-20T01:55:28.605Z,29.87
2019-05-20T01:57:59.278Z,28.53
2019-05-20T02:00:30.089Z,26.73
2019-05-20T02:03:01.304Z,26.70
2019-05-20T02:05:31.898Z,26.23
2019-05-20T02:08:02.557Z,27.07
2019-05-20T02:10:33.343Z,29.37
2019-05-20T02:13:05.180Z,27.33
2019-05-20T02:15:50.983Z,30.27
2019-05-20T02:18:21.756Z,30.00
2019-05-20T02:20:52.448Z,29.50
2019-05-20T02:23:25.110Z,31.47
2019-05-20T02:25:55.825Z,27.97
2019-05-20T02:28:26.474Z,30.27
2019-05-20T02:30:57.316Z,31.63
2019-05-20T02:33:28.160Z,36.13
2019-05-20T02:35:59.018Z,29.50
2019-05-20T02:38:29.618Z,27.60
2019-05-20T02:41:00.285Z,26.73
2019-05-20T02:43:30.889Z,27.47
2019-05-20T02:46:01.592Z,27.87
2019-05-20T02:48:32.299Z,32.30
2019-05-20T02:51:04.833Z,31.27
2019-05-20T02:53:35.433Z,33.10
2019-05-20T02:56:06.287Z,23.87
2019-05-20T02:58:39.580Z,39.10
2019-05-20T03:01:10.362Z,37.90
2019-05-20T03:03:41.421Z,33.73
2019-05-20T03:06:11.856Z,32.27
2019-05-20T03:08:42.583Z,26.43
2019-05-20T03:11:14.770Z,25.37
2019-05-20T03:13:50.984Z,26.13
2019-05-20T03:16:23.094Z,24.47
2019-05-20T03:18:53.805Z,26.47
2019-05-20T03:21:24.488Z,22.57
2019-05-20T03:23:56.605Z,29.43
2019-05-20T03:26:27.422Z,20.90
2019-05-20T03:28:58.099Z,26.30
2019-05-20T03:31:30.357Z,20.37
2019-05-20T03:34:01.000Z,27.83
2019-05-20T03:36:31.613Z,22.07
2019-05-20T03:39:02.162Z,19.50
2019-05-20T03:41:32.773Z,18.10
2019-05-20T03:44:03.894Z,15.23
2019-05-20T03:46:34.647Z,14.20
2019-05-20T03:49:05.674Z,28.60
2019-05-20T03:51:37.819Z,16.57
2019-05-20T03:54:08.527Z,16.23
2019-05-20T03:56:40.124Z,14.57
2019-05-20T03:59:10.993Z,14.07
2019-05-20T04:01:42.134Z,19.30
2019-05-20T04:04:14.235Z,16.40
2019-05-20T04:06:44.892Z,15.33
2019-05-20T04:09:15.320Z,14.73
2019-05-20T04:11:45.976Z,14.53
2019-05-20T04:14:17.739Z,14.70
2019-05-20T04:16:51.681Z,15.10
2019-05-20T04:19:22.415Z,22.13
2019-05-20T04:21:53.200Z,15.63
2019-05-20T04:24:23.718Z,14.70
2019-05-20T04:26:58.428Z,17.03
2019-05-20T04:29:30.366Z,20.20
2019-05-20T04:32:01.378Z,15.00
2019-05-20T04:34:32.688Z,16.50
2019-05-20T04:37:03.681Z,14.80
2019-05-20T04:39:34.552Z,16.83
2019-05-20T04:42:06.743Z,14.20
2019-05-20T04:44:37.950Z,17.13
2019-05-20T04:47:08.675Z,13.87
2019-05-20T04:49:41.074Z,14.77
2019-05-20T04:52:11.876Z,19.70
2019-05-20T04:54:43.141Z,15.40
2019-05-20T04:57:15.050Z,14.33
2019-05-20T04:59:45.733Z,15.73
2019-05-20T05:02:16.422Z,14.93
2019-05-20T05:04:47.182Z,15.33
2019-05-20T05:07:17.955Z,18.27
2019-05-20T05:09:49.042Z,15.87
2019-05-20T05:12:20.000Z,12.77
2019-05-20T05:14:52.135Z,14.30
2019-05-20T05:17:22.764Z,13.27
2019-05-20T05:19:53.902Z,15.60
2019-05-20T05:22:24.614Z,14.17
2019-05-20T05:24:58.185Z,16.90
2019-05-20T05:27:29.155Z,12.97
2019-05-20T05:29:59.858Z,14.80
2019-05-20T05:32:43.482Z,14.07
2019-05-20T05:35:17.111Z,13.63
2019-05-20T05:37:48.617Z,14.73
2019-05-20T05:40:19.735Z,17.63
2019-05-20T05:42:50.581Z,14.63
2019-05-20T05:45:24.076Z,15.33
2019-05-20T05:47:54.602Z,15.27
2019-05-20T05:50:26.243Z,14.33
2019-05-20T05:52:57.067Z,16.53
2019-05-20T05:55:28.378Z,15.70
2019-05-20T05:57:59.404Z,15.50
2019-05-20T06:00:30.196Z,16.70
2019-05-20T06:03:01.162Z,19.87
2019-05-20T06:05:31.957Z,16.43
2019-05-20T06:08:02.652Z,16.80
2019-05-20T06:10:35.705Z,16.50
2019-05-20T06:13:06.090Z,15.07
2019-05-20T06:15:37.984Z,14.73
2019-05-20T06:18:08.632Z,14.60
2019-05-20T06:20:39.335Z,15.03
2019-05-20T06:23:10.145Z,14.20
2019-05-20T06:25:40.706Z,14.60
2019-05-20T06:28:11.308Z,13.87
2019-05-20T06:30:43.963Z,14.33
2019-05-20T06:36:07.662Z,14.30
2019-05-20T06:38:50.419Z,14.63
2019-05-20T06:41:22.455Z,16.63
2019-05-20T06:43:53.076Z,16.57
2019-05-20T06:46:24.054Z,16.87
2019-05-20T06:48:55.075Z,15.03
2019-05-20T06:51:25.917Z,15.77
2019-05-20T06:53:56.561Z,18.40
2019-05-20T06:56:28.268Z,15.20
2019-05-20T06:58:59.195Z,14.83
2019-05-20T07:01:30.107Z,27.30
2019-05-20T07:04:01.869Z,16.90
2019-05-20T07:06:45.281Z,17.50
2019-05-20T07:09:06.266Z,16.20
2019-05-20T07:11:37.118Z,21.70
2019-05-20T07:14:07.839Z,16.90
2019-05-20T07:16:38.538Z,17.63
2019-05-20T07:19:09.421Z,17.50
2019-05-20T07:21:40.231Z,18.77
2019-05-20T07:24:11.205Z,24.63
2019-05-20T07:26:41.971Z,18.33
2019-05-20T07:29:14.165Z,18.73
2019-05-20T07:31:45.961Z,20.33
2019-05-20T07:34:17.184Z,20.47
2019-05-20T07:37:01.892Z,22.50
2019-05-20T07:39:20.459Z,19.90
2019-05-20T07:41:51.390Z,22.10
2019-05-20T07:44:22.329Z,23.87
2019-05-20T07:46:53.087Z,20.30
2019-05-20T07:49:24.512Z,20.60
2019-05-20T07:51:57.265Z,27.67
2019-05-20T07:54:28.469Z,19.50
2019-05-20T07:57:03.985Z,18.20
2019-05-20T07:59:36.436Z,21.20
2019-05-20T08:02:07.455Z,20.07
2019-05-20T08:04:38.147Z,22.13
2019-05-20T08:07:26.565Z,19.63
2019-05-20T08:09:46.054Z,20.60
2019-05-20T08:12:13.997Z,23.40
2019-05-20T08:14:45.090Z,21.23
2019-05-20T08:17:17.043Z,23.53
2019-05-20T08:19:47.697Z,19.30
2019-05-20T08:22:18.558Z,31.73
2019-05-20T08:24:49.552Z,19.37
2019-05-20T08:27:20.124Z,25.23
2019-05-20T08:29:52.449Z,19.67
2019-05-20T08:32:23.230Z,21.47
2019-05-20T08:34:56.293Z,20.03
2019-05-20T08:37:42.102Z,19.23
2019-05-20T08:39:59.923Z,20.80
2019-05-20T08:42:30.748Z,19.90
2019-05-20T08:45:02.133Z,20.63
2019-05-20T08:47:33.176Z,23.20
2019-05-20T08:50:07.247Z,18.50
2019-05-20T08:52:37.472Z,19.20
2019-05-20T08:55:09.275Z,20.83
2019-05-20T08:57:39.998Z,21.53
2019-05-20T09:00:22.098Z,19.77
2019-05-20T09:02:48.557Z,22.03
2019-05-20T09:05:20.510Z,20.63
2019-05-20T09:08:02.388Z,20.90
2019-05-20T09:10:23.664Z,21.07
2019-05-20T09:12:54.386Z,31.07
2019-05-20T09:16:18.404Z,22.87
2019-05-20T09:18:49.081Z,23.40
2019-05-20T09:21:19.635Z,21.97
2019-05-20T09:23:50.106Z,19.63
2019-05-20T09:26:20.689Z,21.07
2019-05-20T09:28:51.342Z,22.50
2019-05-20T09:31:22.425Z,26.80
2019-05-20T09:33:53.309Z,23.77
2019-05-20T09:36:26.035Z,20.83
2019-05-20T09:38:56.801Z,19.43
2019-05-20T09:41:27.268Z,19.63
2019-05-20T09:43:57.648Z,20.20
2019-05-20T09:46:27.903Z,20.53
2019-05-20T09:48:58.144Z,19.60
2019-05-20T09:51:28.578Z,26.50
2019-05-20T09:53:59.013Z,34.73
2019-05-20T09:56:29.366Z,27.73
2019-05-20T09:58:59.613Z,27.23
2019-05-20T10:01:29.948Z,24.00
2019-05-20T10:04:00.524Z,23.87
2019-05-20T10:06:30.900Z,24.10
2019-05-20T10:09:01.219Z,24.70
2019-05-20T10:11:31.454Z,27.60
2019-05-20T10:14:01.738Z,27.03
2019-05-20T10:16:32.160Z,28.10
2019-05-20T10:19:03.576Z,21.80
2019-05-20T10:21:33.792Z,22.90
2019-05-20T10:24:04.146Z,28.97
2019-05-20T10:26:34.426Z,24.13
2019-05-20T10:29:05.789Z,22.07
2019-05-20T10:31:36.234Z,22.70
2019-05-20T10:34:06.618Z,24.40
2019-05-20T10:36:36.866Z,20.50
2019-05-20T10:39:08.779Z,23.13
2019-05-20T10:41:39.390Z,22.93
2019-05-20T10:44:09.661Z,22.70
2019-05-20T10:46:39.894Z,23.07
2019-05-20T10:49:10.126Z,22.80
2019-05-20T10:51:40.456Z,24.03
2019-05-20T10:54:10.714Z,25.43
2019-05-20T10:56:40.898Z,30.33
2019-05-20T10:59:12.084Z,24.37
2019-05-20T11:01:42.967Z,24.63
2019-05-20T11:04:13.221Z,21.83
2019-05-20T11:06:43.503Z,26.00
2019-05-20T11:09:14.651Z,26.40
2019-05-20T11:11:45.197Z,23.40
2019-05-20T11:14:16.151Z,28.63
2019-05-20T11:16:46.830Z,23.67
2019-05-20T11:19:18.329Z,22.80
2019-05-20T11:21:49.080Z,23.57
2019-05-20T11:24:20.090Z,28.20
2019-05-20T11:26:51.056Z,29.93
2019-05-20T11:29:21.665Z,25.33
2019-05-20T11:31:52.256Z,25.07
2019-05-20T11:34:23.021Z,29.47
2019-05-20T11:36:53.573Z,30.20
2019-05-20T11:39:33.351Z,27.67
2019-05-20T11:42:17.930Z,26.23
2019-05-20T11:44:48.475Z,30.83
2019-05-20T11:47:19.137Z,31.40
2019-05-20T11:49:49.842Z,30.90
2019-05-20T11:52:20.378Z,28.97
2019-05-20T11:55:10.876Z,30.10
2019-05-20T11:57:41.719Z,29.23
2019-05-20T12:00:13.130Z,27.83
2019-05-20T12:02:43.685Z,26.17
2019-05-20T12:05:14.667Z,30.43
2019-05-20T12:07:46.500Z,25.30
2019-05-20T12:10:17.585Z,27.03
2019-05-20T12:12:48.078Z,25.40
2019-05-20T12:15:19.690Z,30.33
2019-05-20T12:17:51.157Z,26.00
2019-05-20T12:20:22.729Z,30.67
2019-05-20T12:22:53.310Z,25.57
2019-05-20T12:25:23.987Z,32.57
2019-05-20T12:27:54.673Z,30.27
2019-05-20T12:30:25.322Z,36.13
2019-05-20T12:33:17.041Z,27.53
2019-05-20T12:35:30.523Z,26.30
2019-05-20T12:38:01.958Z,27.40
2019-05-20T12:40:32.471Z,26.70
2019-05-20T12:43:02.917Z,26.87
2019-05-20T12:45:33.589Z,25.33
2019-05-20T12:48:04.319Z,30.53
2019-05-20T12:50:34.807Z,25.47
2019-05-20T12:53:05.482Z,35.17
2019-05-20T12:55:35.999Z,29.53
2019-05-20T12:58:06.492Z,28.43
2019-05-20T13:00:37.080Z,28.53
2019-05-20T13:03:07.577Z,27.10
2019-05-20T13:05:38.004Z,29.33
2019-05-20T13:08:08.525Z,26.30
2019-05-20T13:10:39.388Z,25.37
2019-05-20T13:13:10.064Z,26.13
2019-05-20T13:15:40.787Z,29.87
2019-05-20T13:18:11.313Z,29.33
2019-05-20T13:20:42.840Z,28.87
2019-05-20T13:23:15.269Z,26.13
2019-05-20T13:25:45.503Z,26.37
2019-05-20T13:28:16.025Z,32.50
2019-05-20T13:30:47.063Z,26.10
2019-05-20T13:33:17.299Z,30.67
2019-05-20T13:35:47.641Z,29.73
2019-05-20T13:38:18.309Z,27.47
2019-05-20T13:40:49.514Z,29.03
2019-05-20T13:43:20.150Z,42.33
2019-05-20T13:45:50.747Z,28.10
2019-05-20T13:48:21.526Z,35.03
2019-05-20T13:50:52.091Z,29.83
2019-05-20T13:53:22.380Z,28.40
2019-05-20T13:55:52.671Z,30.97
2019-05-20T13:58:23.188Z,27.33
2019-05-20T14:00:53.573Z,32.17
2019-05-20T14:03:23.716Z,29.43
2019-05-20T14:05:54.073Z,29.30
2019-05-20T14:08:24.399Z,37.43
2019-05-20T14:11:03.723Z,28.17
2019-05-20T14:13:27.280Z,27.30
2019-05-20T14:15:57.514Z,31.20
2019-05-20T14:18:27.830Z,28.30
2019-05-20T14:20:59.108Z,28.83
2019-05-20T14:23:29.371Z,30.10
2019-05-20T14:25:59.696Z,24.53
2019-05-20T14:28:29.964Z,26.60
2019-05-20T14:31:00.603Z,27.57
2019-05-20T14:33:31.045Z,38.60
2019-05-20T14:36:02.749Z,32.20
2019-05-20T14:38:34.474Z,37.90
2019-05-20T14:41:20.458Z,28.37
2019-05-20T14:43:39.117Z,29.00
2019-05-20T14:46:09.748Z,32.83
2019-05-20T14:48:40.458Z,27.07
2019-05-20T14:51:11.249Z,30.43
2019-05-20T14:53:43.242Z,30.03
2019-05-20T14:56:14.552Z,24.77
2019-05-20T14:58:46.598Z,33.80
2019-05-20T15:01:18.462Z,26.43
2019-05-20T15:03:48.954Z,27.80
2019-05-20T15:06:19.286Z,25.47
2019-05-20T15:08:51.403Z,26.70
2019-05-20T15:11:37.122Z,24.10
2019-05-20T15:13:54.059Z,29.00
2019-05-20T15:16:25.031Z,25.33
2019-05-20T15:18:55.401Z,30.73
2019-05-20T15:21:29.332Z,25.83
2019-05-20T15:23:58.973Z,43.57
2019-05-20T15:26:29.888Z,30.30
2019-05-20T15:29:03.322Z,29.23
2019-05-20T15:31:34.489Z,30.90
2019-05-20T15:34:05.226Z,31.30
2019-05-20T15:36:38.260Z,27.10
2019-05-20T15:39:09.155Z,32.07
2019-05-20T15:41:40.575Z,30.57
2019-05-20T15:44:11.435Z,33.00
2019-05-20T15:47:02.300Z,39.10
2019-05-20T15:49:33.851Z,29.00
2019-05-20T15:52:04.750Z,31.10
2019-05-20T15:54:35.768Z,30.10
2019-05-20T15:57:06.539Z,27.87
2019-05-20T15:59:46.067Z,30.63
2019-05-20T16:02:10.022Z,33.27
2019-05-20T16:04:40.722Z,26.90
2019-05-20T16:07:11.520Z,25.27
2019-05-20T16:09:42.307Z,28.60
2019-05-20T16:12:13.489Z,28.87
2019-05-20T16:14:44.271Z,32.43
2019-05-20T16:17:16.042Z,32.83
2019-05-20T16:19:48.309Z,28.80
2019-05-20T16:22:22.131Z,37.20
2019-05-20T16:24:53.008Z,34.60
2019-05-20T16:27:23.833Z,29.70
2019-05-20T16:30:06.255Z,36.23
2019-05-20T16:32:26.997Z,38.23
2019-05-20T16:34:57.478Z,30.00
2019-05-20T16:37:27.867Z,35.73
2019-05-20T16:39:58.510Z,40.83
2019-05-20T16:42:29.114Z,30.87
2019-05-20T16:44:59.575Z,31.33
2019-05-20T16:47:30.083Z,29.50
2019-05-20T16:50:00.473Z,28.07
2019-05-20T16:52:30.951Z,36.70
2019-05-20T16:55:02.106Z,29.60
2019-05-20T16:57:32.829Z,28.90
2019-05-20T17:00:07.286Z,33.97
2019-05-20T17:02:35.572Z,33.07
2019-05-20T17:05:06.303Z,35.60
2019-05-20T17:07:37.432Z,30.53
2019-05-20T17:10:08.806Z,35.23
2019-05-20T17:12:39.644Z,35.70
2019-05-20T17:15:11.477Z,37.83
2019-05-20T17:17:42.051Z,38.07
2019-05-20T17:20:12.522Z,31.50
2019-05-20T17:22:45.500Z,41.83
2019-05-20T17:25:16.265Z,42.70
2019-05-20T17:27:46.766Z,40.13
2019-05-20T17:30:17.488Z,42.70
2019-05-20T17:32:47.920Z,42.07
2019-05-20T17:35:19.130Z,44.07
2019-05-20T17:37:49.556Z,44.07
2019-05-20T17:40:21.531Z,39.90
2019-05-20T17:42:52.527Z,41.00
2019-05-20T17:45:24.933Z,44.87
2019-05-20T17:47:56.387Z,35.17
2019-05-20T17:50:27.761Z,35.70
2019-05-20T17:52:58.882Z,35.87
2019-05-20T17:55:30.425Z,35.30
2019-05-20T17:58:01.234Z,45.33
2019-05-20T18:00:33.418Z,37.80
2019-05-20T18:03:04.190Z,31.47
2019-05-20T18:05:36.358Z,40.57
2019-05-20T18:08:07.068Z,28.20
2019-05-20T18:10:37.817Z,25.40
2019-05-20T18:13:08.971Z,27.77
2019-05-20T18:15:39.985Z,29.83
2019-05-20T18:18:11.186Z,26.33
2019-05-20T18:20:42.312Z,29.00
2019-05-20T18:23:14.102Z,27.87
2019-05-20T18:25:45.018Z,32.90
2019-05-20T18:28:15.687Z,25.60
2019-05-20T18:30:46.148Z,33.03
2019-05-20T18:33:16.638Z,22.33
2019-05-20T18:35:47.475Z,24.43
2019-05-20T18:38:18.265Z,25.77
2019-05-20T18:40:49.380Z,19.20
2019-05-20T18:43:21.295Z,17.07
2019-05-20T18:45:52.510Z,19.90
2019-05-20T18:48:23.447Z,19.30
2019-05-20T18:50:56.140Z,19.70
2019-05-20T18:53:27.065Z,21.60
2019-05-20T18:55:57.894Z,21.23
2019-05-20T18:58:28.949Z,21.40
2019-05-20T19:00:59.396Z,25.23
2019-05-20T19:03:31.707Z,21.53
2019-05-20T19:06:03.093Z,15.70
2019-05-20T19:08:33.715Z,10.90
2019-05-20T19:11:05.117Z,9.03
2019-05-20T19:13:38.253Z,13.87
2019-05-20T19:16:10.153Z,12.53
2019-05-20T19:18:41.093Z,9.17
2019-05-20T19:21:11.775Z,18.17
2019-05-20T19:23:43.858Z,6.93
2019-05-20T19:26:24.468Z,6.80
2019-05-20T19:28:47.671Z,13.97
2019-05-20T19:31:20.184Z,7.50
2019-05-20T19:33:52.148Z,11.23
2019-05-20T19:36:24.610Z,7.80
2019-05-20T19:38:56.677Z,6.60
2019-05-20T19:41:29.429Z,8.60
2019-05-20T19:44:00.456Z,9.10
2019-05-20T19:46:32.738Z,8.23
2019-05-20T19:49:03.227Z,8.33
2019-05-20T19:51:34.107Z,7.13
2019-05-20T19:54:05.109Z,13.93
2019-05-20T19:56:36.004Z,8.50
2019-05-20T19:59:06.356Z,8.27
2019-05-20T20:01:38.545Z,9.73
2019-05-20T20:04:09.887Z,7.00
2019-05-20T20:06:40.992Z,11.67
2019-05-20T20:09:11.987Z,6.77
2019-05-20T20:11:42.980Z,11.53
2019-05-20T20:14:13.926Z,9.27
2019-05-20T20:16:44.348Z,6.40
2019-05-20T20:19:14.701Z,11.00
2019-05-20T20:21:46.431Z,11.00
2019-05-20T20:24:18.042Z,10.87
2019-05-20T20:26:48.602Z,7.33
2019-05-20T20:29:19.490Z,10.67
2019-05-20T20:31:50.027Z,16.70
2019-05-20T20:34:21.456Z,6.07
2019-05-20T20:36:52.453Z,14.33
2019-05-20T20:39:23.210Z,10.17
2019-05-20T20:41:54.119Z,7.63
2019-05-20T20:44:24.897Z,13.43
2019-05-20T20:46:56.943Z,7.00
2019-05-20T20:49:27.942Z,7.57
2019-05-20T20:51:58.766Z,6.30
2019-05-20T20:54:29.420Z,6.17
2019-05-20T20:57:02.371Z,5.90
2019-05-20T20:59:34.488Z,9.23
2019-05-20T21:02:06.806Z,7.20
2019-05-20T21:04:37.553Z,10.70
2019-05-20T21:07:09.222Z,8.50
2019-05-20T21:09:41.383Z,8.83
2019-05-20T21:12:12.072Z,7.27
2019-05-20T21:14:43.854Z,8.50
2019-05-20T21:17:14.413Z,7.43
2019-05-20T21:19:44.991Z,8.03
2019-05-20T21:22:15.807Z,7.47
2019-05-20T21:24:47.512Z,9.20
2019-05-20T21:27:19.685Z,8.63
2019-05-20T21:29:50.226Z,7.13
2019-05-20T21:32:22.104Z,6.70
2019-05-20T21:34:54.305Z,8.30
2019-05-20T21:37:26.454Z,6.67
2019-05-20T21:39:56.838Z,6.73
2019-05-20T21:42:27.276Z,11.23
2019-05-20T21:44:57.722Z,7.33
2019-05-20T21:47:28.101Z,7.70
2019-05-20T21:49:58.444Z,6.90
2019-05-20T21:52:28.861Z,11.93
2019-05-20T21:54:59.265Z,7.63
2019-05-20T21:57:30.236Z,15.37
2019-05-20T22:00:00.650Z,9.60
2019-05-20T22:02:31.115Z,11.47
2019-05-20T22:05:01.526Z,6.40
2019-05-20T22:07:31.984Z,12.10
2019-05-20T22:10:02.417Z,9.03
2019-05-20T22:12:33.443Z,6.47
2019-05-20T22:15:04.090Z,7.93
2019-05-20T22:17:34.680Z,7.23
2019-05-20T22:20:06.889Z,5.13
2019-05-20T22:22:43.153Z,5.40
2019-05-20T22:25:15.092Z,4.87
2019-05-20T22:27:45.719Z,8.37
2019-05-20T22:30:18.009Z,5.33
2019-05-20T22:32:49.843Z,6.47
2019-05-20T22:35:24.593Z,6.00
2019-05-20T22:37:55.352Z,6.03
2019-05-20T22:40:26.657Z,7.43
2019-05-20T22:42:57.474Z,8.00
2019-05-20T22:45:29.855Z,5.87
2019-05-20T22:48:00.708Z,8.77
2019-05-20T22:50:33.238Z,5.20
2019-05-20T22:53:03.861Z,5.43
2019-05-20T22:55:34.582Z,6.67
2019-05-20T22:58:05.322Z,5.50
2019-05-20T23:00:36.276Z,5.13
2019-05-20T23:03:07.239Z,8.10
2019-05-20T23:05:37.839Z,9.53
2019-05-20T23:08:09.728Z,9.30
2019-05-20T23:10:40.557Z,9.83
2019-05-20T23:13:11.449Z,6.10
2019-05-20T23:15:44.895Z,6.77
2019-05-20T23:18:16.495Z,6.70
2019-05-20T23:20:47.182Z,11.50
2019-05-20T23:23:19.367Z,8.40
2019-05-20T23:25:53.137Z,5.47
2019-05-20T23:28:23.902Z,5.10
2019-05-20T23:30:55.438Z,6.00
2019-05-20T23:33:27.630Z,5.87
2019-05-20T23:35:58.480Z,6.30
2019-05-20T23:38:29.479Z,3.90
2019-05-20T23:41:00.465Z,4.23
2019-05-20T23:43:32.319Z,7.40
2019-05-20T23:46:03.179Z,5.03
2019-05-20T23:48:34.016Z,4.20
2019-05-20T23:51:04.935Z,4.70
2019-05-20T23:53:35.728Z,4.53
2019-05-20T23:56:06.793Z,4.40
2019-05-20T23:58:37.584Z,4.90
